Time;durP1;ratioP1;P1;durP2;ratioP2;P2;SDS_P1;SDS_P2;PMS_P1;PMS_P2;Temp;Humidity;BMP_temperature;BMP_pressure;BME280_temperature;BME280_humidity;BME280_pressure;Samples;Min_cycle;Max_cycle;Signal;HPM_P1;HPM_P2
2022/02/25 00:00:45;;;;;;;21.38;2.40;;;4.70;99.90;;;;;;6161764;23;20029;-82
2022/02/25 00:03:13;;;;;;;17.27;2.58;;;4.70;99.90;;;;;;6186403;23;20009;-83
2022/02/25 00:05:39;;;;;;;16.48;2.17;;;4.60;99.90;;;;;;6187289;23;20012;-82
2022/02/25 00:08:05;;;;;;;22.48;3.05;;;4.00;99.90;;;;;;6210984;23;20090;-82
2022/02/25 00:10:30;;;;;;;14.55;1.90;;;4.10;99.90;;;;;;6187441;23;20337;-82
2022/02/25 00:12:56;;;;;;;18.92;2.10;;;4.10;99.90;;;;;;6183625;23;20013;-81
2022/02/25 00:15:22;;;;;;;13.35;2.00;;;4.20;99.90;;;;;;6214393;23;20499;-83
2022/02/25 00:17:47;;;;;;;20.65;2.35;;;4.20;99.90;;;;;;6210308;23;20380;-81
2022/02/25 00:20:16;;;;;;;15.00;1.42;;;4.20;99.90;;;;;;6159624;23;20436;-81
2022/02/25 00:22:43;;;;;;;13.43;2.22;;;4.30;99.90;;;;;;6183081;23;20016;-82
2022/02/25 00:25:10;;;;;;;20.50;2.75;;;5.30;99.90;;;;;;6183492;23;20017;-81
2022/02/25 00:27:44;;;;;;;23.70;2.47;;;4.60;99.90;;;;;;6210531;23;20021;-81
2022/02/25 00:30:11;;;;;;;22.92;2.97;;;4.30;99.90;;;;;;6183446;23;20441;-82
2022/02/25 00:32:37;;;;;;;21.98;2.63;;;4.30;99.90;;;;;;6159207;23;20024;-81
2022/02/25 00:35:04;;;;;;;22.85;2.63;;;4.40;99.90;;;;;;6211352;23;20388;-81
2022/02/25 00:37:30;;;;;;;17.13;2.38;;;4.40;99.90;;;;;;6185110;23;20642;-81
2022/02/25 00:39:56;;;;;;;18.60;2.38;;;4.60;99.90;;;;;;6160176;23;20115;-82
2022/02/25 00:42:21;;;;;;;22.90;2.08;;;4.30;99.90;;;;;;6185640;23;20012;-82
2022/02/25 00:44:47;;;;;;;14.23;2.80;;;5.20;99.90;;;;;;6210827;23;20302;-82
2022/02/25 00:47:13;;;;;;;13.80;2.08;;;4.70;99.90;;;;;;6159702;23;20013;-82
2022/02/25 00:49:39;;;;;;;13.63;2.10;;;5.40;99.90;;;;;;6185513;23;20131;-81
2022/02/25 00:52:05;;;;;;;14.65;2.08;;;4.30;99.90;;;;;;6186005;23;20285;-81
2022/02/25 00:54:31;;;;;;;15.57;2.40;;;4.40;99.90;;;;;;6163394;23;20021;-82
2022/02/25 00:56:57;;;;;;;18.13;2.13;;;4.70;99.90;;;;;;6187141;23;20023;-83
2022/02/25 00:59:23;;;;;;;16.33;2.35;;;4.60;99.90;;;;;;6186238;23;20055;-81
2022/02/25 01:01:50;;;;;;;16.08;2.20;;;4.50;99.90;;;;;;6186823;23;20363;-82
2022/02/25 01:04:16;;;;;;;31.63;3.17;;;5.60;99.90;;;;;;6183713;23;20012;-82
2022/02/25 01:06:42;;;;;;;19.02;2.58;;;4.90;99.90;;;;;;6211588;23;20086;-82
2022/02/25 01:09:08;;;;;;;9.85;1.55;;;5.20;99.90;;;;;;6211068;23;20127;-82
2022/02/25 01:11:34;;;;;;;16.83;2.42;;;5.30;99.90;;;;;;6186020;23;20017;-82
2022/02/25 01:14:18;;;;;;;11.52;1.88;;;5.50;99.90;;;;;;6184056;23;20015;-82
2022/02/25 01:16:44;;;;;;;16.92;2.20;;;5.40;99.90;;;;;;6184222;23;20147;-82
2022/02/25 01:19:10;;;;;;;14.80;2.33;;;5.10;99.90;;;;;;6185771;23;20025;-82
2022/02/25 01:21:35;;;;;;;17.17;2.30;;;5.50;99.90;;;;;;6211178;23;20448;-81
2022/02/25 01:24:01;;;;;;;12.55;1.95;;;5.00;99.90;;;;;;6184517;23;20075;-82
2022/02/25 01:26:28;;;;;;;15.50;2.28;;;5.50;99.90;;;;;;6183485;23;20013;-82
2022/02/25 01:28:53;;;;;;;20.10;2.67;;;4.70;99.90;;;;;;6158707;23;20012;-82
2022/02/25 01:31:19;;;;;;;13.05;2.03;;;5.10;99.90;;;;;;6183428;23;20027;-81
2022/02/25 01:33:46;;;;;;;13.88;2.55;;;4.70;99.90;;;;;;6210032;23;20023;-83
2022/02/25 01:36:12;;;;;;;16.67;2.10;;;5.70;99.90;;;;;;6184360;23;20017;-81
2022/02/25 01:38:38;;;;;;;16.70;2.30;;;4.70;99.90;;;;;;6181891;23;20433;-83
2022/02/25 01:41:04;;;;;;;18.08;2.63;;;5.10;99.90;;;;;;6210325;23;20048;-81
2022/02/25 01:43:32;;;;;;;20.88;2.67;;;5.70;99.90;;;;;;6158046;23;20425;-80
2022/02/25 01:45:58;;;;;;;17.75;2.55;;;4.70;99.90;;;;;;6185682;23;20015;-81
2022/02/25 01:48:25;;;;;;;19.48;2.58;;;4.70;99.90;;;;;;6159964;23;20096;-82
2022/02/25 01:50:51;;;;;;;15.27;2.17;;;5.00;99.90;;;;;;6213183;23;20012;-82
2022/02/25 01:53:20;;;;;;;17.35;2.63;;;4.70;99.90;;;;;;6209315;23;20027;-82
2022/02/25 01:55:47;;;;;;;14.55;2.40;;;4.70;99.90;;;;;;6212457;23;20016;-82
2022/02/25 01:58:14;;;;;;;26.05;2.75;;;5.20;99.90;;;;;;6184742;23;20020;-82
2022/02/25 02:00:40;;;;;;;16.33;3.00;;;5.50;99.90;;;;;;6211247;23;20373;-81
2022/02/25 02:03:06;;;;;;;14.98;2.78;;;5.30;99.90;;;;;;6183494;23;20055;-82
2022/02/25 02:05:33;;;;;;;18.60;2.45;;;5.30;99.90;;;;;;6158515;23;20080;-81
2022/02/25 02:07:59;;;;;;;13.95;2.53;;;4.80;99.90;;;;;;6210095;23;20021;-82
2022/02/25 02:10:25;;;;;;;19.30;2.58;;;4.70;99.90;;;;;;6160164;23;20338;-81
2022/02/25 02:12:50;;;;;;;17.05;2.20;;;4.90;99.90;;;;;;6209296;23;20051;-82
2022/02/25 02:15:16;;;;;;;23.83;2.83;;;4.60;99.90;;;;;;6158824;23;20008;-82
2022/02/25 02:17:42;;;;;;;16.02;2.70;;;4.80;99.90;;;;;;6210050;23;20012;-82
2022/02/25 02:20:08;;;;;;;13.45;2.05;;;5.60;99.90;;;;;;6159711;23;20106;-82
2022/02/25 02:22:34;;;;;;;21.15;2.75;;;4.50;99.90;;;;;;6196535;23;20028;-82
2022/02/25 02:25:00;;;;;;;16.67;2.65;;;4.80;99.90;;;;;;6159325;23;20012;-82
2022/02/25 02:28:17;;;;;;;15.85;2.63;;;5.10;99.90;;;;;;6185722;23;20035;-82
2022/02/25 02:30:14;;;;;;;17.50;2.42;;;4.40;99.90;;;;;;6183571;23;20021;-82
2022/02/25 02:32:40;;;;;;;22.65;2.90;;;4.30;99.90;;;;;;6197936;23;20520;-83
2022/02/25 02:35:07;;;;;;;21.23;2.85;;;4.60;99.90;;;;;;6184568;23;20016;-81
2022/02/25 02:37:33;;;;;;;26.02;2.80;;;4.10;99.90;;;;;;6197326;23;20020;-82
2022/02/25 02:39:59;;;;;;;19.30;2.63;;;5.00;99.90;;;;;;6160286;23;20516;-82
2022/02/25 02:42:24;;;;;;;22.17;2.50;;;4.30;99.90;;;;;;6182877;23;20473;-82
2022/02/25 02:44:50;;;;;;;17.92;3.40;;;4.00;99.90;;;;;;6186035;23;20087;-81
2022/02/25 02:47:16;;;;;;;19.17;2.80;;;3.80;99.90;;;;;;6210549;23;20030;-82
2022/02/25 02:49:42;;;;;;;20.88;2.70;;;4.30;99.90;;;;;;6212608;23;20016;-82
2022/02/25 02:52:07;;;;;;;17.95;2.53;;;4.10;99.90;;;;;;6184050;23;20059;-81
2022/02/25 02:54:33;;;;;;;18.00;2.67;;;4.60;99.90;;;;;;6209415;23;20020;-82
2022/02/25 02:56:59;;;;;;;19.95;2.50;;;3.70;99.90;;;;;;6184316;23;20028;-82
2022/02/25 02:59:26;;;;;;;30.10;3.13;;;4.50;99.90;;;;;;6159540;23;20327;-83
2022/02/25 03:01:51;;;;;;;20.10;2.75;;;4.70;99.90;;;;;;6185386;23;20024;-82
2022/02/25 03:04:17;;;;;;;21.15;3.08;;;3.70;99.90;;;;;;6211322;23;20017;-81
2022/02/25 03:06:43;;;;;;;17.73;2.70;;;3.60;99.90;;;;;;6184827;23;20084;-82
2022/02/25 03:09:08;;;;;;;23.30;3.45;;;3.70;99.90;;;;;;6210881;23;20008;-82
2022/02/25 03:11:34;;;;;;;22.08;2.20;;;4.30;99.90;;;;;;6162639;23;20075;-82
2022/02/25 03:13:59;;;;;;;20.40;3.08;;;3.60;99.90;;;;;;6183700;23;20381;-82
2022/02/25 03:16:25;;;;;;;24.42;2.90;;;3.50;99.90;;;;;;6185074;23;20020;-82
2022/02/25 03:18:51;;;;;;;20.73;2.53;;;4.30;99.90;;;;;;6159334;23;20015;-83
2022/02/25 03:21:16;;;;;;;19.58;2.97;;;3.50;99.90;;;;;;6212222;23;20123;-81
2022/02/25 03:23:45;;;;;;;22.63;2.58;;;3.50;99.90;;;;;;6183773;23;20413;-82
2022/02/25 03:26:11;;;;;;;20.52;2.40;;;3.50;99.90;;;;;;6211210;23;20083;-81
2022/02/25 03:28:38;;;;;;;12.50;1.98;;;3.50;99.90;;;;;;6184194;23;20404;-84
2022/02/25 03:31:04;;;;;;;23.15;2.60;;;3.50;99.90;;;;;;6183764;23;20452;-83
2022/02/25 03:33:29;;;;;;;16.55;2.50;;;2.90;99.90;;;;;;6160357;23;20024;-82
2022/02/25 03:35:55;;;;;;;18.15;2.72;;;3.40;99.90;;;;;;6184133;23;20032;-83
2022/02/25 03:38:23;;;;;;;19.17;2.70;;;3.50;99.90;;;;;;6183460;23;20506;-84
2022/02/25 03:40:49;;;;;;;28.77;3.10;;;4.30;99.90;;;;;;6213336;23;20131;-84
2022/02/25 03:43:15;;;;;;;14.30;2.33;;;4.20;99.90;;;;;;6210858;23;20012;-82
2022/02/25 03:45:40;;;;;;;25.00;2.65;;;4.10;99.90;;;;;;6212535;23;20433;-84
2022/02/25 03:48:06;;;;;;;22.83;2.90;;;3.50;99.90;;;;;;6215104;23;20032;-82
2022/02/25 03:50:32;;;;;;;10.15;2.20;;;3.60;99.90;;;;;;6188209;23;20080;-85
2022/02/25 03:52:58;;;;;;;18.13;3.13;;;3.60;99.90;;;;;;6215626;23;20013;-82
2022/02/25 03:55:23;;;;;;;21.52;3.22;;;3.90;99.90;;;;;;6188961;23;20028;-83
2022/02/25 03:57:49;;;;;;;24.55;2.80;;;3.70;99.90;;;;;;6186276;23;20016;-83
2022/02/25 04:00:16;;;;;;;20.10;2.95;;;4.30;99.90;;;;;;6213606;23;20119;-83
2022/02/25 04:02:42;;;;;;;17.10;2.67;;;3.80;99.90;;;;;;6187955;23;20374;-83
2022/02/25 04:05:10;;;;;;;21.40;2.58;;;3.80;99.90;;;;;;6214885;23;20036;-83
2022/02/25 04:07:40;;;;;;;22.55;2.72;;;3.80;99.90;;;;;;6214080;23;20009;-83
2022/02/25 04:10:06;;;;;;;16.58;2.75;;;3.60;99.90;;;;;;6163058;23;20012;-84
2022/02/25 04:12:32;;;;;;;20.02;2.42;;;3.70;99.90;;;;;;6214558;23;20044;-85
2022/02/25 04:14:58;;;;;;;15.38;1.83;;;3.70;99.90;;;;;;6190221;23;20074;-82
2022/02/25 04:17:23;;;;;;;22.48;3.58;;;3.70;99.90;;;;;;6162392;23;20019;-84
2022/02/25 04:19:49;;;;;;;18.73;2.63;;;3.60;99.90;;;;;;6160490;23;20016;-83
2022/02/25 04:22:15;;;;;;;24.42;2.78;;;3.60;99.90;;;;;;6212981;23;20013;-82
2022/02/25 04:24:40;;;;;;;17.92;2.50;;;4.70;99.90;;;;;;6160399;23;20083;-83
2022/02/25 04:27:06;;;;;;;17.23;2.15;;;3.70;99.90;;;;;;6183247;23;20021;-83
2022/02/25 04:29:32;;;;;;;17.90;2.50;;;3.60;99.90;;;;;;6184146;23;20107;-83
2022/02/25 04:31:57;;;;;;;24.13;2.85;;;4.40;99.90;;;;;;6210784;23;20023;-84
2022/02/25 04:34:23;;;;;;;16.80;2.15;;;3.60;99.90;;;;;;6210689;23;20158;-83
2022/02/25 04:36:49;;;;;;;18.35;2.83;;;3.70;99.90;;;;;;6183397;23;20437;-83
2022/02/25 04:39:15;;;;;;;19.63;2.90;;;3.60;99.90;;;;;;6209947;23;20570;-83
2022/02/25 04:41:41;;;;;;;13.07;2.28;;;3.70;99.90;;;;;;6183494;23;20021;-83
2022/02/25 04:44:07;;;;;;;10.38;2.05;;;4.40;99.90;;;;;;6209637;23;20016;-83
2022/02/25 04:46:34;;;;;;;23.20;2.80;;;4.70;99.90;;;;;;6183188;23;20099;-84
2022/02/25 04:48:59;;;;;;;28.75;3.38;;;3.80;99.90;;;;;;6183955;23;20321;-83
2022/02/25 04:51:25;;;;;;;17.52;2.97;;;4.70;99.90;;;;;;6160193;23;20020;-83
2022/02/25 04:53:51;;;;;;;15.70;2.78;;;4.80;99.90;;;;;;6158786;23;20021;-84
2022/02/25 04:56:17;;;;;;;22.75;2.72;;;4.00;99.90;;;;;;6213032;23;20020;-84
2022/02/25 04:58:43;;;;;;;28.85;3.28;;;5.00;99.90;;;;;;6161186;23;20023;-84
2022/02/25 05:01:09;;;;;;;22.30;2.40;;;4.00;99.90;;;;;;6185391;23;20020;-82
2022/02/25 05:03:34;;;;;;;28.17;3.15;;;4.10;99.90;;;;;;6183736;23;20439;-83
2022/02/25 05:06:01;;;;;;;18.00;2.65;;;4.40;99.90;;;;;;6186443;23;20038;-85
2022/02/25 05:08:27;;;;;;;17.55;2.63;;;5.00;99.90;;;;;;6183566;23;20004;-84
2022/02/25 05:10:53;;;;;;;25.70;3.08;;;4.80;99.90;;;;;;6203902;23;20031;-84
2022/02/25 05:13:19;;;;;;;21.33;2.78;;;4.20;99.90;;;;;;6184554;23;20083;-84
2022/02/25 05:21:17;;;;;;;26.73;3.05;;;5.20;99.90;;;;;;6212744;23;20086;-85
2022/02/25 05:23:43;;;;;;;18.10;2.63;;;5.10;99.90;;;;;;6183825;23;20028;-83
2022/02/25 05:26:08;;;;;;;16.85;2.75;;;4.70;99.90;;;;;;6183560;23;20012;-83
2022/02/25 05:28:34;;;;;;;22.25;3.05;;;5.10;99.90;;;;;;6183348;23;20012;-85
2022/02/25 05:31:00;;;;;;;19.35;2.92;;;5.00;99.90;;;;;;6205042;23;20015;-83
2022/02/25 05:33:26;;;;;;;21.45;3.35;;;4.10;99.90;;;;;;6182731;23;20631;-83
2022/02/25 05:35:52;;;;;;;17.67;2.88;;;4.10;99.90;;;;;;6186847;23;20020;-83
2022/02/25 05:38:17;;;;;;;21.55;3.38;;;4.10;99.90;;;;;;6210457;23;20017;-84
2022/02/25 05:40:43;;;;;;;20.65;3.17;;;5.20;99.90;;;;;;6186003;23;20017;-83
2022/02/25 05:43:09;;;;;;;21.85;3.38;;;4.90;99.90;;;;;;6213076;23;20009;-83
2022/02/25 05:45:35;;;;;;;22.50;2.95;;;4.90;99.90;;;;;;6212773;23;20483;-83
2022/02/25 05:48:01;;;;;;;21.80;2.42;;;4.10;99.90;;;;;;6184461;23;20009;-83
2022/02/25 05:50:28;;;;;;;22.13;3.13;;;4.30;99.90;;;;;;6163093;23;20019;-84
2022/02/25 05:52:55;;;;;;;29.65;3.20;;;5.10;99.90;;;;;;6186830;23;20417;-84
2022/02/25 05:55:22;;;;;;;19.00;3.13;;;4.30;99.90;;;;;;6186627;23;20013;-84
2022/02/25 05:57:49;;;;;;;15.02;2.20;;;5.20;99.90;;;;;;6159251;23;20124;-82
2022/02/25 06:00:17;;;;;;;16.88;2.38;;;4.80;99.90;;;;;;6185138;23;20016;-85
2022/02/25 06:02:45;;;;;;;15.07;2.25;;;4.30;99.90;;;;;;6161142;23;20096;-83
2022/02/25 06:05:11;;;;;;;18.48;3.15;;;4.30;99.90;;;;;;6205250;23;20008;-86
2022/02/25 06:07:37;;;;;;;16.05;2.33;;;4.20;99.90;;;;;;6208865;23;20433;-83
2022/02/25 06:10:04;;;;;;;14.48;2.20;;;5.10;99.90;;;;;;6183808;23;20052;-83
2022/02/25 06:12:30;;;;;;;16.38;2.08;;;4.10;99.90;;;;;;6185109;23;20017;-83
2022/02/25 06:14:56;;;;;;;11.80;2.58;;;4.00;99.90;;;;;;6207604;23;20382;-84
2022/02/25 06:17:21;;;;;;;19.83;2.67;;;3.90;99.90;;;;;;6157285;23;20086;-82
2022/02/25 06:19:47;;;;;;;17.10;2.47;;;3.90;99.90;;;;;;6183828;23;20009;-85
2022/02/25 06:22:13;;;;;;;12.25;1.98;;;4.00;99.90;;;;;;6210533;23;20013;-83
2022/02/25 06:24:39;;;;;;;15.07;2.13;;;3.90;99.90;;;;;;6158575;23;20016;-83
2022/02/25 06:27:05;;;;;;;18.38;2.30;;;4.00;99.90;;;;;;6184026;23;20028;-82
2022/02/25 06:29:31;;;;;;;17.80;2.95;;;3.90;99.90;;;;;;6185483;23;20016;-86
2022/02/25 06:31:56;;;;;;;14.15;2.20;;;3.80;99.90;;;;;;6157855;23;20081;-85
2022/02/25 06:34:22;;;;;;;13.02;2.80;;;3.90;99.90;;;;;;6159386;23;20048;-84
2022/02/25 06:36:50;;;;;;;12.77;2.30;;;4.60;99.90;;;;;;6160048;23;20684;-83
2022/02/25 06:39:19;;;;;;;15.40;2.00;;;4.90;99.90;;;;;;6183912;23;20111;-84
2022/02/25 06:41:45;;;;;;;10.48;1.98;;;5.10;99.90;;;;;;6184484;23;20016;-83
2022/02/25 06:44:11;;;;;;;16.80;2.88;;;3.90;99.90;;;;;;6182912;23;20071;-81
2022/02/25 06:46:36;;;;;;;12.57;1.95;;;4.20;99.90;;;;;;6185134;23;20389;-81
2022/02/25 06:49:03;;;;;;;21.83;3.38;;;4.30;99.90;;;;;;6159680;23;20147;-80
2022/02/25 06:51:30;;;;;;;15.05;3.08;;;3.80;99.90;;;;;;6211146;23;20016;-81
2022/02/25 06:53:56;;;;;;;17.80;2.83;;;4.00;99.90;;;;;;6210591;23;20058;-81
2022/02/25 06:56:22;;;;;;;18.23;3.33;;;3.80;99.90;;;;;;6211437;23;20019;-80
2022/02/25 06:58:48;;;;;;;20.52;2.80;;;4.50;99.90;;;;;;6183425;23;20480;-80
2022/02/25 07:01:13;;;;;;;22.25;2.72;;;3.70;99.90;;;;;;6158823;23;20146;-79
2022/02/25 07:03:39;;;;;;;22.08;2.78;;;4.00;99.90;;;;;;6184261;23;20087;-80
2022/02/25 07:06:05;;;;;;;26.25;3.45;;;4.30;99.90;;;;;;6160259;23;20091;-81
2022/02/25 07:08:30;;;;;;;23.67;3.13;;;3.90;99.90;;;;;;6211327;23;20027;-82
2022/02/25 07:10:56;;;;;;;18.80;2.97;;;3.90;99.90;;;;;;6211281;23;20020;-82
2022/02/25 07:13:22;;;;;;;26.48;3.22;;;4.70;99.90;;;;;;6184228;23;20021;-83
2022/02/25 07:15:48;;;;;;;16.58;2.70;;;4.40;99.90;;;;;;6184838;23;20013;-82
2022/02/25 07:18:15;;;;;;;22.17;3.45;;;4.00;99.90;;;;;;6159616;23;20020;-83
2022/02/25 07:20:45;;;;;;;19.92;3.88;;;4.00;99.90;;;;;;6186955;23;20421;-82
2022/02/25 07:23:11;;;;;;;23.13;2.42;;;4.00;99.90;;;;;;6163115;23;20013;-82
2022/02/25 07:25:37;;;;;;;26.38;3.15;;;4.60;99.90;;;;;;6214867;23;20022;-81
2022/02/25 07:28:04;;;;;;;29.95;3.53;;;4.00;99.90;;;;;;6206721;23;20098;-81
2022/02/25 07:30:30;;;;;;;22.25;2.90;;;4.90;99.90;;;;;;6213401;23;20020;-81
2022/02/25 07:32:57;;;;;;;30.25;3.88;;;3.90;99.90;;;;;;6213475;23;20012;-83
2022/02/25 07:35:23;;;;;;;25.38;4.57;;;4.40;99.90;;;;;;6186772;23;20016;-81
2022/02/25 07:37:48;;;;;;;23.45;3.60;;;3.90;99.90;;;;;;6162274;23;20103;-83
2022/02/25 07:40:14;;;;;;;21.23;3.55;;;4.00;99.90;;;;;;6187468;23;20103;-84
2022/02/25 07:42:42;;;;;;;24.48;3.22;;;4.80;99.90;;;;;;6186612;23;20509;-80
2022/02/25 07:45:08;;;;;;;21.60;3.53;;;4.60;99.90;;;;;;6213485;23;20013;-81
2022/02/25 07:47:35;;;;;;;24.95;3.38;;;3.90;99.90;;;;;;6186956;23;20354;-81
2022/02/25 07:50:01;;;;;;;22.55;3.75;;;4.40;99.90;;;;;;6188017;23;20463;-82
2022/02/25 07:52:26;;;;;;;21.92;3.70;;;4.00;99.90;;;;;;6213813;23;20012;-83
2022/02/25 07:54:52;;;;;;;24.67;3.67;;;4.00;99.90;;;;;;6186469;23;20052;-83
2022/02/25 07:57:18;;;;;;;29.65;4.13;;;4.10;99.90;;;;;;6187249;23;20017;-83
2022/02/25 07:59:45;;;;;;;34.88;3.45;;;4.20;99.90;;;;;;6186145;23;20024;-84
2022/02/25 08:02:11;;;;;;;22.77;3.50;;;4.40;99.90;;;;;;6186723;23;20013;-81
2022/02/25 08:04:39;;;;;;;29.95;3.92;;;5.00;99.90;;;;;;6185261;23;20016;-81
2022/02/25 08:07:05;;;;;;;29.15;3.47;;;4.50;99.90;;;;;;6185380;23;20016;-78
2022/02/25 08:09:30;;;;;;;23.58;3.75;;;4.40;99.90;;;;;;6162327;23;20515;-78
2022/02/25 08:11:56;;;;;;;27.10;4.00;;;5.20;99.90;;;;;;6163049;23;20063;-80
2022/02/25 08:14:23;;;;;;;24.90;3.67;;;4.80;99.90;;;;;;6188301;23;20336;-80
2022/02/25 08:16:48;;;;;;;23.90;3.67;;;4.90;99.90;;;;;;6188736;23;20075;-79
2022/02/25 08:19:15;;;;;;;34.97;4.00;;;5.50;99.90;;;;;;6164228;23;20013;-82
2022/02/25 08:21:41;;;;;;;34.25;3.47;;;5.20;99.90;;;;;;6163339;23;20075;-81
2022/02/25 08:24:08;;;;;;;27.75;3.42;;;5.30;99.90;;;;;;6188440;23;20008;-82
2022/02/25 08:26:34;;;;;;;27.88;4.47;;;5.30;99.90;;;;;;6163667;23;20040;-79
2022/02/25 08:29:01;;;;;;;21.27;3.13;;;5.40;99.90;;;;;;6161880;23;20020;-83
2022/02/25 08:31:27;;;;;;;18.23;2.70;;;5.40;99.90;;;;;;6188200;23;20016;-79
2022/02/25 08:33:52;;;;;;;26.85;3.47;;;5.70;99.90;;;;;;6163482;23;20086;-82
2022/02/25 08:36:18;;;;;;;30.67;4.32;;;6.10;99.90;;;;;;6189932;23;20023;-78
2022/02/25 08:38:44;;;;;;;16.38;2.63;;;5.80;99.90;;;;;;6187816;23;20107;-79
2022/02/25 08:41:10;;;;;;;22.95;2.42;;;5.40;99.90;;;;;;6212647;23;20020;-79
2022/02/25 08:43:36;;;;;;;25.25;3.30;;;5.30;99.90;;;;;;6156328;23;20102;-78
2022/02/25 08:46:02;;;;;;;21.45;2.55;;;5.30;99.90;;;;;;6160385;23;20016;-81
2022/02/25 08:48:29;;;;;;;18.10;2.58;;;5.40;99.90;;;;;;6185760;23;20099;-80
2022/02/25 08:50:55;;;;;;;19.77;2.65;;;5.90;99.90;;;;;;6204515;23;20055;-81
2022/02/25 08:53:24;;;;;;;22.75;2.90;;;6.30;99.90;;;;;;6213940;23;20020;-79
2022/02/25 08:55:50;;;;;;;16.90;2.50;;;5.60;99.90;;;;;;6186790;23;20016;-84
2022/02/25 08:58:16;;;;;;;19.02;2.60;;;5.60;99.90;;;;;;6130780;23;20512;-83
2022/02/25 09:00:42;;;;;;;12.20;1.95;;;5.50;99.90;;;;;;6184161;23;20437;-81
2022/02/25 09:03:08;;;;;;;19.27;2.30;;;5.50;99.90;;;;;;6133734;23;20020;-81
2022/02/25 09:05:34;;;;;;;13.75;2.13;;;5.60;99.90;;;;;;6157986;23;20013;-81
2022/02/25 09:08:00;;;;;;;16.00;2.03;;;5.40;99.90;;;;;;6158576;23;20020;-82
2022/02/25 09:10:25;;;;;;;16.73;2.28;;;5.50;99.90;;;;;;6134863;23;20421;-79
2022/02/25 09:12:52;;;;;;;26.45;3.03;;;5.50;99.90;;;;;;6157847;23;20036;-77
2022/02/25 09:15:25;;;;;;;21.98;3.17;;;5.70;99.90;;;;;;6158023;23;20406;-79
2022/02/25 09:17:56;;;;;;;20.00;3.00;;;5.50;99.90;;;;;;6133411;23;20381;-80
2022/02/25 09:20:23;;;;;;;16.73;2.08;;;6.10;99.90;;;;;;6156648;23;20276;-82
2022/02/25 09:22:50;;;;;;;16.77;3.05;;;5.70;99.90;;;;;;6133831;23;20012;-81
2022/02/25 09:25:16;;;;;;;28.10;3.50;;;6.60;99.90;;;;;;6133599;23;20017;-80
2022/02/25 09:27:43;;;;;;;18.25;2.50;;;6.80;99.90;;;;;;6157776;23;20068;-83
2022/02/25 09:30:12;;;;;;;15.48;2.75;;;5.90;99.90;;;;;;6157136;23;20019;-81
2022/02/25 09:32:39;;;;;;;16.95;2.75;;;6.00;99.90;;;;;;6157169;23;20028;-80
2022/02/25 09:35:06;;;;;;;13.43;2.65;;;6.40;99.90;;;;;;6158034;23;20017;-83
2022/02/25 09:37:35;;;;;;;21.67;3.05;;;6.20;99.90;;;;;;6158655;23;20306;-83
2022/02/25 09:40:05;;;;;;;30.05;3.60;;;6.40;99.90;;;;;;6158449;23;20021;-82
2022/02/25 09:42:31;;;;;;;18.50;2.80;;;6.50;99.90;;;;;;6110033;23;20022;-81
2022/02/25 09:44:57;;;;;;;22.25;3.17;;;6.60;99.90;;;;;;6166292;23;20013;-79
2022/02/25 09:47:24;;;;;;;25.65;3.80;;;6.80;99.90;;;;;;6136817;23;20013;-80
2022/02/25 09:49:50;;;;;;;21.42;3.05;;;7.40;99.90;;;;;;6157342;23;20021;-81
2022/02/25 09:52:17;;;;;;;18.73;3.33;;;7.30;99.90;;;;;;6184886;23;20024;-82
2022/02/25 09:54:43;;;;;;;27.65;3.25;;;7.40;99.90;;;;;;6133420;23;20024;-81
2022/02/25 09:57:10;;;;;;;23.33;3.08;;;7.60;99.90;;;;;;6136591;23;20013;-84
2022/02/25 09:59:36;;;;;;;31.45;4.22;;;8.00;99.90;;;;;;6156193;23;20072;-83
2022/02/25 10:02:04;;;;;;;18.15;3.53;;;7.60;99.90;;;;;;6157187;23;20027;-80
2022/02/25 10:04:31;;;;;;;35.30;4.30;;;7.50;99.90;;;;;;6156618;23;20013;-82
2022/02/25 10:06:57;;;;;;;26.60;3.38;;;7.70;99.90;;;;;;6158206;23;20099;-83
2022/02/25 10:09:39;;;;;;;19.77;3.10;;;7.20;99.90;;;;;;6155903;23;20488;-80
2022/02/25 10:12:10;;;;;;;35.15;4.00;;;7.20;99.90;;;;;;6156391;23;20017;-81
2022/02/25 10:14:59;;;;;;;21.70;3.60;;;7.10;99.90;;;;;;6155596;23;20009;-84
2022/02/25 10:17:29;;;;;;;21.92;2.92;;;6.90;99.90;;;;;;6131903;23;20017;-86
2022/02/25 10:20:00;;;;;;;23.63;3.42;;;6.90;99.90;;;;;;6156314;23;20456;-83
2022/02/25 10:22:32;;;;;;;17.27;2.60;;;7.00;99.90;;;;;;6156896;23;20021;-83
2022/02/25 10:25:03;;;;;;;18.55;2.72;;;7.00;99.90;;;;;;6156769;23;20020;-83
2022/02/25 10:27:33;;;;;;;11.07;2.17;;;7.10;99.90;;;;;;6156770;23;20104;-82
2022/02/25 10:30:14;;;;;;;18.52;2.53;;;8.00;99.90;;;;;;6156215;23;20402;-82
2022/02/25 10:32:46;;;;;;;19.15;2.95;;;7.90;99.90;;;;;;6183159;23;20033;-81
2022/02/25 10:35:35;;;;;;;29.35;4.03;;;7.70;99.90;;;;;;6156620;23;20296;-80
2022/02/25 10:38:14;;;;;;;28.92;3.60;;;8.00;99.90;;;;;;6154978;23;20013;-81
2022/02/25 10:40:43;;;;;;;23.27;3.20;;;8.20;99.90;;;;;;6182582;23;20020;-80
2022/02/25 10:43:27;;;;;;;17.17;2.33;;;7.90;99.90;;;;;;6155400;23;20294;-81
2022/02/25 10:46:09;;;;;;;18.40;2.67;;;7.60;99.90;;;;;;6156441;23;20436;-89
2022/02/25 10:48:35;;;;;;;14.13;2.25;;;7.10;99.90;;;;;;6156874;23;20471;-81
2022/02/25 10:51:06;;;;;;;17.08;2.10;;;6.70;99.90;;;;;;6157128;23;20020;-81
2022/02/25 10:53:48;;;;;;;17.05;2.05;;;6.60;99.90;;;;;;6156866;23;20012;-79
2022/02/25 10:56:20;;;;;;;18.17;2.17;;;6.40;99.90;;;;;;6155328;23;20025;-80
2022/02/25 10:58:56;;;;;;;15.18;2.63;;;7.30;99.90;;;;;;6159671;23;20024;-77
2022/02/25 11:01:32;;;;;;;25.85;3.00;;;6.60;99.90;;;;;;6208803;23;20017;-77
2022/02/25 11:04:19;;;;;;;17.58;3.25;;;6.60;99.90;;;;;;6205012;23;20016;-84
2022/02/25 11:06:48;;;;;;;22.17;2.78;;;6.90;99.90;;;;;;6150490;23;20128;-80
2022/02/25 11:09:14;;;;;;;18.08;2.78;;;7.40;99.90;;;;;;6185027;23;20047;-79
2022/02/25 11:11:40;;;;;;;21.83;2.83;;;7.00;99.90;;;;;;6213281;23;20095;-80
2022/02/25 11:14:10;;;;;;;21.98;2.90;;;7.30;99.90;;;;;;6159207;23;20095;-81
2022/02/25 11:16:39;;;;;;;17.60;2.25;;;7.50;99.90;;;;;;6185632;23;20023;-84
2022/02/25 11:19:06;;;;;;;11.68;2.10;;;7.70;99.90;;;;;;6212839;23;20016;-83
2022/02/25 11:21:32;;;;;;;10.10;1.73;;;7.70;99.90;;;;;;6186761;23;20020;-81
2022/02/25 11:24:00;;;;;;;13.20;1.60;;;7.90;99.90;;;;;;6187617;23;20061;-81
2022/02/25 11:26:25;;;;;;;10.52;1.23;;;8.10;99.90;;;;;;6184549;23;20086;-81
2022/02/25 11:28:52;;;;;;;4.60;0.63;;;8.60;99.90;;;;;;6185404;23;20084;-83
2022/02/25 11:31:29;;;;;;;6.13;1.20;;;8.50;99.90;;;;;;6212177;23;20110;-82
2022/02/25 11:33:55;;;;;;;5.57;1.00;;;7.80;99.90;;;;;;6160838;23;20061;-81
2022/02/25 11:36:47;;;;;;;5.75;1.35;;;8.10;99.90;;;;;;6187285;23;20019;-81
2022/02/25 11:39:27;;;;;;;8.43;1.40;;;8.10;99.90;;;;;;6161491;23;20017;-83
2022/02/25 11:41:58;;;;;;;8.30;1.70;;;8.10;99.90;;;;;;6186005;23;20399;-83
2022/02/25 11:44:25;;;;;;;10.95;1.70;;;8.30;99.90;;;;;;6185322;23;20021;-83
2022/02/25 11:46:52;;;;;;;13.77;1.77;;;8.30;99.90;;;;;;6161586;23;20013;-81
2022/02/25 11:49:19;;;;;;;17.27;2.22;;;8.10;99.90;;;;;;6160396;23;20016;-81
2022/02/25 11:51:53;;;;;;;16.65;2.60;;;8.00;99.90;;;;;;6161351;23;20091;-83
2022/02/25 11:54:33;;;;;;;12.93;1.90;;;8.10;99.90;;;;;;6186623;23;20012;-83
2022/02/25 11:57:03;;;;;;;10.23;1.80;;;8.40;99.90;;;;;;6151778;23;20047;-81
2022/02/25 11:59:32;;;;;;;15.05;2.85;;;8.10;99.90;;;;;;6130960;23;20032;-80
2022/02/25 12:02:14;;;;;;;13.95;2.92;;;7.90;99.90;;;;;;6132407;23;20013;-81
2022/02/25 12:04:43;;;;;;;14.30;2.20;;;8.00;99.90;;;;;;6156993;23;20306;-81
2022/02/25 12:07:13;;;;;;;17.65;2.33;;;8.20;99.90;;;;;;6133552;23;20190;-82
2022/02/25 12:09:48;;;;;;;13.35;1.98;;;8.30;99.90;;;;;;6157759;23;20317;-82
2022/02/25 12:12:23;;;;;;;18.60;2.63;;;8.40;99.90;;;;;;6156993;23;20088;-83
2022/02/25 12:14:58;;;;;;;19.98;3.13;;;9.10;99.90;;;;;;6157131;23;20087;-82
2022/02/25 12:17:43;;;;;;;18.25;2.53;;;8.80;99.90;;;;;;6184161;23;20023;-81
2022/02/25 12:20:20;;;;;;;6.28;1.58;;;8.30;99.90;;;;;;6157527;23;20072;-82
2022/02/25 12:22:50;;;;;;;20.48;2.92;;;8.70;99.90;;;;;;6157242;23;20024;-78
2022/02/25 12:25:40;;;;;;;19.42;3.13;;;8.20;99.90;;;;;;6184844;23;20020;-79
2022/02/25 12:28:27;;;;;;;25.42;3.15;;;8.40;99.90;;;;;;6156717;23;20021;-79
2022/02/25 12:31:12;;;;;;;17.85;2.28;;;8.70;99.90;;;;;;6157916;23;20049;-79
2022/02/25 12:33:44;;;;;;;16.70;2.03;;;8.90;99.90;;;;;;6157828;23;20020;-78
2022/02/25 12:36:28;;;;;;;9.65;1.55;;;9.00;99.90;;;;;;6158017;23;20349;-78
2022/02/25 12:39:00;;;;;;;16.90;3.38;;;8.90;99.90;;;;;;6158483;23;20036;-78
2022/02/25 12:41:28;;;;;;;17.30;2.08;;;9.00;99.90;;;;;;6157732;23;20187;-78
2022/02/25 12:44:05;;;;;;;23.65;3.38;;;9.00;99.90;;;;;;6155738;23;20017;-78
2022/02/25 12:46:44;;;;;;;17.58;2.60;;;8.70;99.90;;;;;;6156362;23;20032;-78
2022/02/25 12:49:14;;;;;;;10.43;1.67;;;8.50;99.90;;;;;;6131714;23;20009;-80
2022/02/25 12:51:43;;;;;;;13.85;2.38;;;8.40;99.90;;;;;;6158302;23;20013;-79
2022/02/25 12:54:11;;;;;;;16.48;1.90;;;9.10;99.90;;;;;;6184621;23;20013;-79
2022/02/25 12:56:42;;;;;;;10.45;2.47;;;8.40;99.90;;;;;;6138122;23;20024;-79